Delray Beach, FL

6:54 PM EDT on July 27, 2017 (GMT -0400)
woods of southridge 1 mi from ocean | | Change Station

Elev 43 ft 26.44 °N, 80.08 °W | Updated 49 minutes ago

Partly Cloudy
Partly Cloudy
89.5 °F
Feels Like 103 °F
N
7.0
Wind Variable Wind from NNE
Gusts 8.0 mph

Today
High -- | Low -- °F
--% Chance of Precip.
Yesterday
High -- | Low -- °F
Precip. -- in
Pressure 29.97 in
Visibility 10.0 miles
Clouds Scattered Clouds 2100 ft
Scattered Clouds 25000 ft
Heat Index 103 °F
Dew Point 78 °F
Humidity 68%
Rainfall 0.00 in
Snow Depth Not available.
6:43 AM 8:10 PM
Waxing Crescent, 24% visible
METAR KPMP 272153Z 10010KT 10SM SCT021 SCT250 32/25 A2997 RMK AO2 LTG DSNT NW SLP149 T03170250
Pressure 29.97 in
Visibility 10.0 miles
Clouds Scattered Clouds 2100 ft
Scattered Clouds 25000 ft
Heat Index 103 °F
Dew Point 78 °F
Humidity 68%
Rainfall 0.00 in
Snow Depth Not available.
6:43 AM 8:10 PM
Waxing Crescent, 24% visible
METAR KPMP 272153Z 10010KT 10SM SCT021 SCT250 32/25 A2997 RMK AO2 LTG DSNT NW SLP149 T03170250

Get Severe Weather Alerts

Thanks for signing up!

Be on the lookout for a verification email in your inbox.

You'll start receiving the daily forecast at 6 AM.

×

10-Day Weather Forecast

Almanac

Astronomy

Jul. 27, 2017 Rise Set
Actual Time
Civil Twilight
Nautical Twilight
Astronomical Twilight
Moon
Length of Visible Light
Length of Day
Tomorrow will be .
, % of the Moon is Illuminated

Today's Extremes

State Highs State Lows

Community

WunderPhotos

Category 6

Welcome to Category 6. This is the collective home for Weather Underground's featured writeups by Dr. Jeff Masters (right), Bob Henson (left), Chris Burt, and other regular contributors.

Nearby

Air Quality

  Air Quality AQ Index Pollutant
Not available.

Snow Depth

Station Depth Elevation

Earthquake Activity

City Distance Mag. Time & Date
Minimum magnitude displayed is 2.5.

Coastal Water Temperatures

Place Temperature

Stations

Nearby Weather Stations

Station Location Temp. Windchill Dew Point Humidity Wind Precip. Elev Updated Type
                   

Watches & Warnings

There are currently no watches in effect.